Time;durP1;ratioP1;P1;durP2;ratioP2;P2;SDS_P1;SDS_P2;PMS_P1;PMS_P2;Temp;Humidity;BMP_temperature;BMP_pressure;BME280_temperature;BME280_humidity;BME280_pressure;Samples;Min_cycle;Max_cycle;Signal;HPM_P1;HPM_P2
2022/12/24 00:01:24;;;;;;;72.95;22.55;;;6.20;99.90;;;;;;5097452;27;20731;-46
2022/12/24 00:03:50;;;;;;;48.63;21.00;;;6.20;99.90;;;;;;5097990;27;20488;-47
2022/12/24 00:06:19;;;;;;;59.28;20.38;;;6.30;99.90;;;;;;5096880;27;20547;-48
2022/12/24 00:08:45;;;;;;;60.85;21.58;;;6.20;99.90;;;;;;5097128;28;20059;-47
2022/12/24 00:11:10;;;;;;;50.95;21.48;;;6.30;99.90;;;;;;5098175;27;20466;-46
2022/12/24 00:13:36;;;;;;;63.55;21.75;;;6.10;99.90;;;;;;5097219;27;20092;-46
2022/12/24 00:16:02;;;;;;;47.78;19.90;;;6.20;99.90;;;;;;5098018;28;20044;-44
2022/12/24 00:18:28;;;;;;;50.67;20.92;;;6.10;99.90;;;;;;5097039;27;20118;-49
2022/12/24 00:20:54;;;;;;;57.03;22.80;;;6.20;99.90;;;;;;5097296;27;20084;-50
2022/12/24 00:23:20;;;;;;;53.22;21.63;;;6.20;99.90;;;;;;5076882;28;20040;-46
2022/12/24 00:25:46;;;;;;;48.58;20.42;;;6.10;99.90;;;;;;5094433;27;20440;-46
2022/12/24 00:28:12;;;;;;;50.67;21.10;;;6.10;99.90;;;;;;5093080;28;20039;-45
2022/12/24 00:30:39;;;;;;;48.40;20.58;;;6.20;99.90;;;;;;5095681;27;20040;-44
2022/12/24 00:33:05;;;;;;;52.63;21.45;;;6.10;99.90;;;;;;5096045;27;20043;-50
2022/12/24 00:35:36;;;;;;;54.15;21.05;;;6.10;99.90;;;;;;5096081;27;20043;-46
2022/12/24 00:38:02;;;;;;;55.30;21.17;;;6.20;99.90;;;;;;5095616;27;20055;-45
2022/12/24 00:40:29;;;;;;;50.47;20.70;;;6.20;99.90;;;;;;5095459;28;20047;-45
2022/12/24 00:42:55;;;;;;;52.85;20.85;;;6.10;99.90;;;;;;5093410;27;20168;-45
2022/12/24 00:45:21;;;;;;;53.10;21.67;;;6.20;99.90;;;;;;5094695;27;20039;-45
2022/12/24 00:47:47;;;;;;;64.47;22.35;;;6.20;99.90;;;;;;5095787;27;20543;-45
2022/12/24 00:50:13;;;;;;;53.70;21.65;;;6.10;99.90;;;;;;5095543;28;20035;-46
2022/12/24 00:52:39;;;;;;;47.75;20.85;;;6.20;99.90;;;;;;5094405;27;20035;-49
2022/12/24 00:55:05;;;;;;;55.55;21.75;;;6.20;99.90;;;;;;5094353;28;20035;-46
2022/12/24 00:57:31;;;;;;;55.97;22.30;;;6.10;99.90;;;;;;5094439;27;20534;-49
2022/12/24 00:59:57;;;;;;;43.78;19.52;;;6.10;99.90;;;;;;5096093;27;20051;-47
2022/12/24 01:02:22;;;;;;;46.92;20.05;;;6.20;99.90;;;;;;5094410;27;20036;-45
2022/12/24 01:07:33;;;;;;;52.88;20.95;;;6.20;99.90;;;;;;5094757;27;20488;-44
2022/12/24 01:09:59;;;;;;;58.00;21.95;;;6.20;99.90;;;;;;5095841;27;20028;-45
2022/12/24 01:12:24;;;;;;;54.03;21.35;;;6.10;99.90;;;;;;5094809;27;20035;-48
2022/12/24 01:14:50;;;;;;;51.47;20.92;;;6.10;99.90;;;;;;5095566;27;20050;-48
2022/12/24 01:17:16;;;;;;;55.28;22.05;;;6.20;99.90;;;;;;5095682;28;20043;-46
2022/12/24 01:19:42;;;;;;;62.08;22.08;;;6.20;99.90;;;;;;5092806;28;20035;-49
2022/12/24 01:22:08;;;;;;;47.35;21.27;;;;;;;;;;5095499;28;20043;-48
2022/12/24 01:24:33;;;;;;;57.53;21.30;;;6.30;99.90;;;;;;5095537;27;20130;-44
2022/12/24 01:26:59;;;;;;;46.72;21.30;;;6.10;99.90;;;;;;5095422;28;20083;-47
2022/12/24 01:29:25;;;;;;;60.20;21.52;;;6.20;99.90;;;;;;5096041;27;20070;-45
2022/12/24 01:31:51;;;;;;;50.88;20.02;;;6.20;99.90;;;;;;5095446;28;20059;-44
2022/12/24 01:34:16;;;;;;;64.50;22.25;;;6.10;99.90;;;;;;5094957;27;20036;-44
2022/12/24 01:36:42;;;;;;;54.35;22.08;;;6.00;99.90;;;;;;5095183;27;20032;-49
2022/12/24 01:39:08;;;;;;;47.22;21.05;;;6.30;99.90;;;;;;5095017;27;20036;-49
2022/12/24 01:44:30;;;;;;;57.40;21.55;;;6.10;99.90;;;;;;5093512;28;20059;-49
2022/12/24 01:47:18;;;;;;;69.45;23.35;;;6.10;99.90;;;;;;5093782;27;20210;-47
2022/12/24 01:49:49;;;;;;;66.47;21.55;;;6.10;99.90;;;;;;5087497;28;20052;-45
2022/12/24 01:52:35;;;;;;;59.92;22.63;;;6.20;99.90;;;;;;5093943;28;20510;-45
2022/12/24 01:55:09;;;;;;;49.80;21.10;;;6.20;99.90;;;;;;5093909;27;20309;-46
2022/12/24 01:57:41;;;;;;;105.50;25.73;;;6.10;99.90;;;;;;5093903;27;20098;-49
2022/12/24 02:00:11;;;;;;;103.25;24.35;;;6.20;99.90;;;;;;5093655;27;20040;-48
2022/12/24 02:02:39;;;;;;;98.40;25.48;;;6.10;99.90;;;;;;5093569;27;20077;-48
2022/12/24 02:05:19;;;;;;;116.38;26.00;;;6.10;99.90;;;;;;5093844;27;20491;-50
2022/12/24 02:07:46;;;;;;;100.15;25.77;;;6.10;99.90;;;;;;5092999;27;20037;-47
2022/12/24 02:10:12;;;;;;;95.55;25.52;;;6.20;99.90;;;;;;5093334;28;20040;-44
2022/12/24 02:12:39;;;;;;;73.90;24.55;;;6.10;99.90;;;;;;5093864;28;20126;-47
2022/12/24 02:15:08;;;;;;;66.68;22.40;;;6.10;99.90;;;;;;5093891;28;20067;-49
2022/12/24 02:17:38;;;;;;;60.97;23.10;;;6.10;99.90;;;;;;5093234;27;20063;-44
2022/12/24 02:20:22;;;;;;;68.25;23.48;;;6.20;99.90;;;;;;5094012;27;20051;-46
2022/12/24 02:23:12;;;;;;;68.15;23.13;;;6.20;99.90;;;;;;5093636;27;20039;-45
2022/12/24 02:26:02;;;;;;;56.90;22.50;;;6.30;99.90;;;;;;5087698;27;20536;-45
2022/12/24 02:28:39;;;;;;;78.65;24.92;;;6.30;99.90;;;;;;5092655;27;20067;-46
2022/12/24 02:31:13;;;;;;;66.32;23.88;;;6.40;99.90;;;;;;5094169;27;20683;-46
2022/12/24 02:33:47;;;;;;;56.95;23.15;;;6.40;99.90;;;;;;5092746;27;20043;-47
2022/12/24 02:36:28;;;;;;;61.13;24.55;;;6.30;99.90;;;;;;5092909;28;20303;-45
2022/12/24 02:39:07;;;;;;;51.97;23.70;;;6.40;99.90;;;;;;5093568;28;20444;-47
2022/12/24 02:44:29;;;;;;;53.58;23.27;;;6.30;99.90;;;;;;5094369;28;20043;-46
2022/12/24 02:46:57;;;;;;;52.95;23.65;;;6.40;99.90;;;;;;5093289;27;20100;-44
2022/12/24 02:49:23;;;;;;;50.25;23.40;;;6.30;99.90;;;;;;5095218;27;20039;-44
2022/12/24 02:51:49;;;;;;;48.03;21.73;;;6.50;99.90;;;;;;5094149;28;20116;-45
2022/12/24 02:54:16;;;;;;;42.95;20.92;;;6.50;99.90;;;;;;5094567;28;20636;-48
2022/12/24 02:57:18;;;;;;;44.28;21.95;;;6.60;99.90;;;;;;5093982;28;20031;-46
2022/12/24 02:59:49;;;;;;;47.75;21.55;;;6.70;99.90;;;;;;5093871;28;20136;-46
2022/12/24 03:02:32;;;;;;;47.15;21.60;;;6.70;99.90;;;;;;5094052;28;20400;-48
2022/12/24 03:05:24;;;;;;;43.15;20.88;;;6.70;99.90;;;;;;5093531;28;20043;-48
2022/12/24 03:08:14;;;;;;;40.45;20.67;;;7.00;99.90;;;;;;5092648;28;20089;-45
2022/12/24 03:10:55;;;;;;;35.83;19.50;;;7.20;99.90;;;;;;5092616;28;20044;-46
2022/12/24 03:13:22;;;;;;;39.22;19.25;;;7.10;99.90;;;;;;5092670;28;20610;-47
2022/12/24 03:15:49;;;;;;;30.20;16.75;;;7.00;99.90;;;;;;5093568;28;20040;-46
2022/12/24 03:18:18;;;;;;;30.88;16.35;;;7.10;99.90;;;;;;5092866;28;20408;-47
2022/12/24 03:20:59;;;;;;;30.10;15.45;;;5.40;99.90;;;;;;5092873;28;20043;-45
2022/12/24 03:23:25;;;;;;;35.35;15.40;;;7.10;99.90;;;;;;5093188;28;20070;-45
2022/12/24 03:25:51;;;;;;;31.85;14.75;;;7.30;99.90;;;;;;5090893;28;20533;-46
2022/12/24 03:28:18;;;;;;;36.38;16.23;;;8.00;99.90;;;;;;5093273;28;20669;-45
2022/12/24 03:30:47;;;;;;;34.88;14.85;;;7.10;99.90;;;;;;5092234;28;20047;-47
2022/12/24 03:33:13;;;;;;;30.98;14.70;;;8.40;99.90;;;;;;5092541;28;20438;-46
2022/12/24 03:35:39;;;;;;;33.88;14.80;;;7.30;99.90;;;;;;5091663;28;20077;-49
2022/12/24 03:38:05;;;;;;;33.65;14.73;;;7.10;99.90;;;;;;5091409;28;20423;-49
2022/12/24 03:40:31;;;;;;;28.83;15.73;;;8.90;99.90;;;;;;5094132;28;20050;-48
2022/12/24 03:42:57;;;;;;;33.40;14.55;;;7.20;99.90;;;;;;5092799;28;20027;-45
2022/12/24 03:45:23;;;;;;;34.17;15.23;;;7.20;99.90;;;;;;5092084;28;20687;-46
2022/12/24 03:47:48;;;;;;;36.78;14.15;;;7.60;99.90;;;;;;5091867;28;20047;-44
2022/12/24 03:50:14;;;;;;;33.45;14.23;;;9.30;99.90;;;;;;5093133;28;20120;-45
2022/12/24 03:52:40;;;;;;;39.00;12.68;;;7.20;99.90;;;;;;5091925;28;20043;-46
2022/12/24 03:55:06;;;;;;;28.80;12.57;;;7.40;99.90;;;;;;5091928;28;20046;-45
2022/12/24 03:57:32;;;;;;;33.80;12.68;;;7.40;99.90;;;;;;5092561;28;20056;-45
2022/12/24 03:59:57;;;;;;;33.33;11.02;;;7.60;99.90;;;;;;5096589;27;20043;-51
2022/12/24 04:02:23;;;;;;;38.90;11.20;;;8.40;99.90;;;;;;5097628;27;20096;-45
2022/12/24 04:04:49;;;;;;;33.72;10.52;;;7.60;99.90;;;;;;5094815;27;20115;-45
2022/12/24 04:07:14;;;;;;;45.03;9.48;;;7.60;99.90;;;;;;5096977;27;20039;-46
2022/12/24 04:09:40;;;;;;;40.22;8.23;;;7.70;99.90;;;;;;5097898;28;20043;-45
2022/12/24 04:12:06;;;;;;;40.28;7.47;;;7.70;99.90;;;;;;5096688;28;20685;-44
2022/12/24 04:14:32;;;;;;;40.58;7.40;;;7.90;99.90;;;;;;5096963;27;20044;-46
2022/12/24 04:16:58;;;;;;;46.30;7.47;;;9.50;99.90;;;;;;5096201;27;20044;-45
2022/12/24 04:19:24;;;;;;;47.50;7.55;;;7.60;99.90;;;;;;5097788;27;20538;-44
2022/12/24 04:21:49;;;;;;;58.63;6.85;;;7.70;99.90;;;;;;5095298;27;20046;-44
2022/12/24 04:24:15;;;;;;;44.20;6.20;;;8.00;99.90;;;;;;5095947;27;20070;-44
2022/12/24 04:26:41;;;;;;;46.72;6.75;;;7.30;99.90;;;;;;5094744;27;20039;-47
2022/12/24 04:29:06;;;;;;;47.80;6.50;;;8.40;99.90;;;;;;5095951;27;20127;-45
2022/12/24 04:31:32;;;;;;;39.55;6.72;;;7.70;99.90;;;;;;5094370;28;20071;-48
2022/12/24 04:33:58;;;;;;;45.78;6.60;;;7.40;99.90;;;;;;5095410;27;20050;-47
2022/12/24 04:36:23;;;;;;;38.42;6.05;;;7.50;99.90;;;;;;5094341;27;20530;-44
2022/12/24 04:38:49;;;;;;;45.63;6.88;;;7.50;99.90;;;;;;5093738;27;20038;-46
2022/12/24 04:41:20;;;;;;;47.67;7.40;;;7.50;99.90;;;;;;5095642;27;20039;-45
2022/12/24 04:43:46;;;;;;;44.30;6.55;;;7.70;99.90;;;;;;5094544;27;20028;-49
2022/12/24 04:46:17;;;;;;;56.75;6.00;;;8.80;99.90;;;;;;5095146;27;20036;-44
2022/12/24 04:48:44;;;;;;;46.55;6.20;;;9.20;99.90;;;;;;5095020;27;20061;-45
2022/12/24 04:51:10;;;;;;;39.40;5.60;;;7.60;99.90;;;;;;5094571;27;20150;-45
2022/12/24 04:53:38;;;;;;;40.78;6.35;;;8.50;99.90;;;;;;5094273;28;20120;-44
2022/12/24 04:56:13;;;;;;;48.15;6.68;;;8.80;99.90;;;;;;5094465;27;20046;-47
2022/12/24 04:58:39;;;;;;;40.72;5.00;;;7.60;99.90;;;;;;5094642;27;20142;-45
2022/12/24 05:01:06;;;;;;;39.85;6.78;;;7.60;99.90;;;;;;5095259;27;20053;-49
2022/12/24 05:03:32;;;;;;;46.65;7.72;;;7.60;99.90;;;;;;5095033;27;20100;-45
2022/12/24 05:06:07;;;;;;;41.88;6.50;;;7.60;99.90;;;;;;5093213;27;20062;-45
2022/12/24 05:08:33;;;;;;;51.20;6.25;;;7.40;99.90;;;;;;5094193;27;20594;-45
2022/12/24 05:11:00;;;;;;;45.25;6.10;;;7.40;99.90;;;;;;5093879;27;21155;-50
2022/12/24 05:13:26;;;;;;;47.00;6.15;;;7.90;99.90;;;;;;5095468;27;20051;-47
2022/12/24 05:15:52;;;;;;;35.97;5.40;;;7.50;99.90;;;;;;5095698;27;20043;-48
2022/12/24 05:18:19;;;;;;;48.05;6.13;;;9.70;99.90;;;;;;5094471;27;20048;-45
2022/12/24 05:20:45;;;;;;;50.92;6.20;;;8.20;99.90;;;;;;5096570;27;20043;-44
2022/12/24 05:26:50;;;;;;;51.58;6.18;;;7.70;99.90;;;;;;5016419;28;20077;-46
2022/12/24 05:29:16;;;;;;;49.90;6.97;;;8.50;99.90;;;;;;5019218;28;20033;-47
2022/12/24 05:31:43;;;;;;;49.72;5.55;;;7.60;99.90;;;;;;5064199;28;20096;-46
2022/12/24 05:34:10;;;;;;;59.42;6.45;;;8.50;99.90;;;;;;5095716;28;20118;-46
2022/12/24 05:36:36;;;;;;;53.25;6.78;;;9.30;99.90;;;;;;5095727;28;20039;-45
2022/12/24 05:39:03;;;;;;;45.65;6.13;;;7.60;99.90;;;;;;5095339;27;20055;-47
2022/12/24 05:41:29;;;;;;;43.58;5.70;;;8.60;99.90;;;;;;5095674;27;20039;-47
2022/12/24 05:43:55;;;;;;;58.72;8.75;;;9.10;99.90;;;;;;5094902;27;20411;-44
2022/12/24 05:46:22;;;;;;;52.05;7.55;;;7.50;99.90;;;;;;5092947;27;20214;-47
2022/12/24 05:48:48;;;;;;;45.72;5.93;;;7.60;99.90;;;;;;5093902;27;20047;-44
2022/12/24 05:51:18;;;;;;;55.95;6.57;;;7.60;99.90;;;;;;5094068;28;20052;-51
2022/12/24 05:53:45;;;;;;;45.70;5.93;;;7.50;99.90;;;;;;5093873;27;20108;-47
2022/12/24 05:56:22;;;;;;;49.40;6.20;;;7.70;99.90;;;;;;5093509;27;20667;-45
2022/12/24 05:58:49;;;;;;;55.70;8.00;;;8.90;99.90;;;;;;5093550;27;20048;-46
2022/12/24 06:01:15;;;;;;;54.17;6.72;;;7.60;99.90;;;;;;5092813;27;20781;-45
2022/12/24 06:03:41;;;;;;;51.45;7.03;;;9.40;99.90;;;;;;5093565;27;20040;-45
2022/12/24 06:06:10;;;;;;;45.95;6.80;;;7.70;99.90;;;;;;5091305;27;20040;-46
2022/12/24 06:08:37;;;;;;;55.28;7.30;;;8.70;99.90;;;;;;5094772;28;20052;-47
2022/12/24 06:11:06;;;;;;;48.13;6.30;;;7.60;99.90;;;;;;5093524;28;20544;-46
2022/12/24 06:13:32;;;;;;;56.72;8.27;;;7.60;99.90;;;;;;5093626;27;20040;-44
2022/12/24 06:16:00;;;;;;;42.63;5.93;;;7.70;99.90;;;;;;5092943;27;20526;-44
2022/12/24 06:18:27;;;;;;;41.53;5.88;;;8.60;99.90;;;;;;5093084;28;20040;-45
2022/12/24 06:20:54;;;;;;;55.67;6.10;;;7.50;99.90;;;;;;5093596;27;20044;-45
2022/12/24 06:23:21;;;;;;;49.22;6.97;;;9.10;99.90;;;;;;5092881;27;20032;-45
2022/12/24 06:25:47;;;;;;;51.28;5.93;;;7.90;99.90;;;;;;5093398;28;20051;-44
2022/12/24 06:28:13;;;;;;;40.55;6.80;;;7.90;99.90;;;;;;5092368;28;20070;-50
2022/12/24 06:30:39;;;;;;;40.70;5.32;;;7.80;99.90;;;;;;5092672;27;20047;-45
2022/12/24 06:33:05;;;;;;;47.78;7.00;;;7.70;99.90;;;;;;5092598;27;20039;-44
2022/12/24 06:35:31;;;;;;;48.33;6.57;;;8.30;99.90;;;;;;5095533;27;20758;-48
2022/12/24 06:37:58;;;;;;;50.65;6.40;;;8.30;99.90;;;;;;5094791;27;20106;-44
2022/12/24 06:40:28;;;;;;;49.95;7.03;;;7.80;99.90;;;;;;5094526;27;20067;-46
2022/12/24 06:42:53;;;;;;;39.22;5.53;;;7.90;99.90;;;;;;5094126;27;20035;-44
2022/12/24 06:45:19;;;;;;;48.60;6.78;;;7.80;99.90;;;;;;5094081;28;20702;-45
2022/12/24 06:47:45;;;;;;;60.03;8.70;;;8.10;99.90;;;;;;5094579;27;20039;-44
2022/12/24 06:50:11;;;;;;;51.97;6.20;;;8.40;99.90;;;;;;5095210;27;20051;-44
2022/12/24 06:52:37;;;;;;;43.22;6.78;;;7.70;99.90;;;;;;5094137;27;20054;-49
2022/12/24 06:55:03;;;;;;;32.88;5.57;;;7.70;99.90;;;;;;5094727;28;20066;-46
2022/12/24 06:57:30;;;;;;;43.67;5.60;;;7.70;99.90;;;;;;5094377;28;20361;-45
2022/12/24 06:59:57;;;;;;;46.85;5.63;;;7.90;99.90;;;;;;5091734;28;20131;-48
2022/12/24 07:02:23;;;;;;;47.97;6.13;;;7.80;99.90;;;;;;5093732;28;20040;-44
2022/12/24 07:04:48;;;;;;;44.80;6.30;;;7.60;99.90;;;;;;5093951;28;20054;-44
2022/12/24 07:07:14;;;;;;;53.75;7.22;;;8.50;99.90;;;;;;5095359;28;20060;-45
2022/12/24 07:09:40;;;;;;;51.65;6.97;;;7.60;99.90;;;;;;5092103;28;20046;-49
2022/12/24 07:12:06;;;;;;;44.50;6.28;;;7.70;99.90;;;;;;5091582;28;20040;-43
2022/12/24 07:14:32;;;;;;;49.45;6.13;;;8.40;99.90;;;;;;5092692;28;20046;-47
2022/12/24 07:16:58;;;;;;;45.90;6.25;;;7.50;99.90;;;;;;5092623;28;20039;-44
2022/12/24 07:19:23;;;;;;;46.33;5.43;;;7.60;99.90;;;;;;5093301;28;20101;-46
2022/12/24 07:21:49;;;;;;;53.67;6.72;;;7.90;99.90;;;;;;5092081;28;20063;-45
2022/12/24 07:24:15;;;;;;;51.70;5.85;;;7.80;99.90;;;;;;5092297;28;20039;-44
2022/12/24 07:26:41;;;;;;;48.90;6.10;;;7.80;99.90;;;;;;5092706;28;20043;-45
2022/12/24 07:29:07;;;;;;;45.97;5.63;;;7.60;99.90;;;;;;5092435;28;20040;-50
2022/12/24 07:31:33;;;;;;;49.42;6.32;;;7.70;99.90;;;;;;5091926;28;20040;-45
2022/12/24 07:33:59;;;;;;;43.35;6.05;;;7.60;99.90;;;;;;5093109;28;20503;-45
2022/12/24 07:36:27;;;;;;;40.47;6.00;;;7.60;99.90;;;;;;5097451;28;20066;-48
2022/12/24 07:38:53;;;;;;;52.80;7.88;;;7.70;99.90;;;;;;5097087;27;20408;-45
2022/12/24 07:41:19;;;;;;;48.45;6.35;;;7.80;99.90;;;;;;5095998;27;20063;-45
2022/12/24 07:43:45;;;;;;;51.90;6.97;;;7.70;99.90;;;;;;5095038;27;20122;-45
2022/12/24 07:46:11;;;;;;;49.10;6.00;;;8.50;99.90;;;;;;5095252;28;20742;-44
2022/12/24 07:48:36;;;;;;;49.20;5.88;;;7.70;99.90;;;;;;5097041;27;20048;-45
2022/12/24 07:51:03;;;;;;;41.22;6.85;;;8.50;99.90;;;;;;5096880;27;20039;-46
2022/12/24 07:53:29;;;;;;;49.35;6.85;;;7.90;99.90;;;;;;5095736;27;20619;-46
2022/12/24 07:55:55;;;;;;;45.70;6.65;;;8.00;99.90;;;;;;5095516;27;20058;-44
2022/12/24 07:58:21;;;;;;;46.35;6.35;;;7.50;99.90;;;;;;5097229;27;20068;-45
2022/12/24 08:00:47;;;;;;;42.83;7.55;;;8.00;99.90;;;;;;5096202;27;20044;-47
2022/12/24 08:03:18;;;;;;;50.15;6.15;;;7.90;99.90;;;;;;5096692;27;20042;-46
2022/12/24 08:05:44;;;;;;;47.28;7.28;;;7.90;99.90;;;;;;5096686;28;20035;-44
2022/12/24 08:08:09;;;;;;;46.70;6.80;;;7.80;99.90;;;;;;5096331;27;20127;-47
2022/12/24 08:10:38;;;;;;;52.03;6.97;;;7.80;99.90;;;;;;5098110;27;20130;-43
2022/12/24 08:13:04;;;;;;;48.70;6.50;;;7.60;99.90;;;;;;5097289;27;20032;-45
2022/12/24 08:15:30;;;;;;;56.30;6.55;;;7.60;99.90;;;;;;5096059;28;20047;-45
2022/12/24 08:17:55;;;;;;;50.10;6.25;;;8.60;99.90;;;;;;5095720;27;20036;-46
2022/12/24 08:20:21;;;;;;;55.30;7.13;;;7.80;99.90;;;;;;5097286;27;21020;-45
2022/12/24 08:22:47;;;;;;;42.55;6.85;;;7.60;99.90;;;;;;5094780;28;20036;-45
2022/12/24 08:25:12;;;;;;;60.95;7.80;;;7.40;99.90;;;;;;5094693;27;20232;-45
2022/12/24 08:27:38;;;;;;;55.13;7.88;;;7.80;99.90;;;;;;5094779;28;20044;-46
2022/12/24 08:30:05;;;;;;;48.88;6.53;;;7.70;99.90;;;;;;5096081;27;20504;-45
2022/12/24 08:32:30;;;;;;;46.45;6.32;;;7.70;99.90;;;;;;5095143;27;20523;-45
2022/12/24 08:34:56;;;;;;;41.08;7.75;;;7.70;99.90;;;;;;5094900;27;20036;-45
2022/12/24 08:37:22;;;;;;;57.40;7.97;;;9.00;99.90;;;;;;5095133;27;20130;-45
2022/12/24 08:39:47;;;;;;;50.42;6.97;;;9.60;99.90;;;;;;5095918;27;20040;-46
2022/12/24 08:42:14;;;;;;;55.30;7.03;;;7.70;99.90;;;;;;5095017;27;20510;-47
2022/12/24 08:44:39;;;;;;;58.80;8.27;;;7.70;99.90;;;;;;5094991;27;20526;-48
2022/12/24 08:47:05;;;;;;;50.38;7.57;;;7.60;99.90;;;;;;5095250;27;20079;-49
2022/12/24 08:49:31;;;;;;;54.72;7.47;;;8.30;99.90;;;;;;5094513;27;20138;-45
2022/12/24 08:51:57;;;;;;;48.28;6.03;;;8.60;99.90;;;;;;5095292;27;20121;-46
2022/12/24 08:54:24;;;;;;;49.50;8.50;;;9.00;99.90;;;;;;5094588;28;20039;-45
2022/12/24 08:56:50;;;;;;;66.30;8.27;;;7.70;99.90;;;;;;5094806;27;20051;-49
2022/12/24 08:59:17;;;;;;;43.88;6.30;;;8.10;99.90;;;;;;5095429;27;20083;-45
2022/12/24 09:01:43;;;;;;;61.63;7.60;;;7.70;99.90;;;;;;5093162;27;21350;-45
2022/12/24 09:04:08;;;;;;;45.72;6.47;;;7.90;99.90;;;;;;5094316;27;20591;-45
2022/12/24 09:06:34;;;;;;;46.22;7.05;;;7.70;99.90;;;;;;5094835;27;20047;-46
2022/12/24 09:09:01;;;;;;;48.22;5.90;;;7.90;99.90;;;;;;5095808;27;20082;-47
2022/12/24 09:11:27;;;;;;;42.80;6.32;;;8.70;99.90;;;;;;5095465;27;20042;-47
2022/12/24 09:13:53;;;;;;;41.17;5.95;;;8.10;99.90;;;;;;5093865;27;20045;-45
2022/12/24 09:16:19;;;;;;;42.28;6.05;;;8.70;99.90;;;;;;5094140;27;20508;-44
2022/12/24 09:18:45;;;;;;;44.33;6.13;;;7.90;99.90;;;;;;5092577;27;20044;-45
2022/12/24 09:21:13;;;;;;;50.50;6.03;;;7.90;99.90;;;;;;5095935;27;20075;-46
2022/12/24 09:23:41;;;;;;;45.63;5.72;;;8.20;99.90;;;;;;5094984;27;20039;-46
2022/12/24 09:26:18;;;;;;;52.72;6.95;;;8.60;99.90;;;;;;5095592;27;20055;-46
2022/12/24 09:28:44;;;;;;;48.35;6.35;;;9.40;99.90;;;;;;5094935;28;20573;-45
2022/12/24 09:31:11;;;;;;;41.72;5.68;;;9.20;99.90;;;;;;5096385;27;20220;-45
2022/12/24 09:33:39;;;;;;;45.72;7.07;;;9.00;99.90;;;;;;5095164;27;20043;-45
2022/12/24 09:36:06;;;;;;;42.05;6.68;;;8.30;99.90;;;;;;5095792;27;20247;-49
2022/12/24 09:38:32;;;;;;;39.08;5.30;;;8.20;99.90;;;;;;5096296;27;20044;-43
2022/12/24 09:40:59;;;;;;;44.75;5.88;;;9.00;99.90;;;;;;5095657;27;20047;-47
2022/12/24 09:43:28;;;;;;;45.17;6.25;;;8.10;99.90;;;;;;5096085;27;20036;-48
2022/12/24 09:46:25;;;;;;;46.28;6.40;;;8.30;99.90;;;;;;5096626;27;20119;-48
2022/12/24 09:48:56;;;;;;;45.47;8.18;;;8.50;99.90;;;;;;5095357;27;20040;-48
2022/12/24 09:51:53;;;;;;;38.55;6.30;;;8.50;99.90;;;;;;5095758;27;20438;-45
2022/12/24 09:54:26;;;;;;;51.90;7.45;;;8.60;99.90;;;;;;5094036;27;20077;-46
2022/12/24 09:56:55;;;;;;;50.00;6.88;;;8.60;99.90;;;;;;5093686;27;20593;-46
2022/12/24 09:59:24;;;;;;;34.92;6.55;;;8.40;99.90;;;;;;5093873;27;20052;-46
2022/12/24 10:01:52;;;;;;;37.92;5.60;;;8.50;99.90;;;;;;5093653;28;20403;-45
2022/12/24 10:04:21;;;;;;;47.10;6.35;;;8.60;99.90;;;;;;5093089;28;20617;-45
2022/12/24 10:07:33;;;;;;;40.35;5.95;;;8.60;99.90;;;;;;5093919;27;20047;-48
2022/12/24 10:10:32;;;;;;;44.50;6.65;;;8.70;99.90;;;;;;5094146;27;20035;-45
2022/12/24 10:13:22;;;;;;;51.03;6.82;;;8.70;99.90;;;;;;5093582;27;20316;-45
2022/12/24 10:16:06;;;;;;;43.67;6.13;;;9.20;99.90;;;;;;5093066;27;20043;-45
2022/12/24 10:18:44;;;;;;;36.95;5.47;;;9.40;99.90;;;;;;5093427;28;20082;-46
2022/12/24 10:21:13;;;;;;;40.03;6.13;;;9.60;99.90;;;;;;5093570;27;20515;-46
2022/12/24 10:24:00;;;;;;;39.75;6.22;;;9.80;99.90;;;;;;5093049;27;20096;-45
2022/12/24 10:26:35;;;;;;;42.72;7.88;;;9.80;99.90;;;;;;5093319;27;20039;-45
2022/12/24 10:29:39;;;;;;;42.35;6.22;;;9.70;99.90;;;;;;5092778;27;20726;-44
2022/12/24 10:32:08;;;;;;;39.53;5.88;;;9.70;99.90;;;;;;5092624;28;20089;-46
2022/12/24 10:34:49;;;;;;;29.83;5.68;;;9.30;99.90;;;;;;5092646;27;20126;-47
2022/12/24 10:37:21;;;;;;;39.13;5.90;;;9.50;99.90;;;;;;5095294;27;20127;-49
2022/12/24 10:39:47;;;;;;;37.95;5.18;;;9.40;99.90;;;;;;5094177;27;20047;-45
2022/12/24 10:42:15;;;;;;;30.40;5.05;;;9.80;99.90;;;;;;5094730;28;20068;-45
2022/12/24 10:44:44;;;;;;;33.45;5.47;;;9.40;99.90;;;;;;5094114;27;20047;-45
2022/12/24 10:47:11;;;;;;;33.38;5.47;;;9.60;99.90;;;;;;5094416;28;20075;-44
2022/12/24 10:49:47;;;;;;;33.45;5.35;;;9.60;99.90;;;;;;5093480;27;20153;-49
2022/12/24 10:52:18;;;;;;;42.90;5.65;;;9.40;99.90;;;;;;5093944;27;20351;-44
2022/12/24 10:55:10;;;;;;;37.25;7.15;;;9.50;99.90;;;;;;5093106;28;20031;-45
2022/12/24 10:57:37;;;;;;;34.30;5.70;;;9.40;99.90;;;;;;5094069;28;20503;-45
2022/12/24 11:00:05;;;;;;;35.05;5.82;;;9.40;99.90;;;;;;5093947;28;20088;-45
2022/12/24 11:02:36;;;;;;;34.75;6.25;;;9.50;99.90;;;;;;5093676;28;20212;-48
2022/12/24 11:05:06;;;;;;;38.92;7.35;;;9.30;99.90;;;;;;5091467;28;20051;-47
2022/12/24 11:07:32;;;;;;;30.60;4.88;;;9.50;99.90;;;;;;5093081;28;20268;-48
2022/12/24 11:10:04;;;;;;;34.75;5.82;;;9.50;99.90;;;;;;5092129;28;20428;-44
2022/12/24 11:12:34;;;;;;;32.67;5.18;;;9.40;99.90;;;;;;5092223;28;20040;-50
2022/12/24 11:15:16;;;;;;;32.20;5.15;;;9.20;99.90;;;;;;5091738;28;20047;-48
2022/12/24 11:17:51;;;;;;;38.78;5.20;;;9.50;99.90;;;;;;5092724;28;20093;-47
2022/12/24 11:20:25;;;;;;;33.28;5.65;;;9.50;99.90;;;;;;5092064;28;20039;-45
2022/12/24 11:22:51;;;;;;;23.50;4.72;;;9.20;99.90;;;;;;5092024;28;20082;-47
2022/12/24 11:25:21;;;;;;;32.03;4.80;;;9.40;99.90;;;;;;5091904;28;20166;-44
2022/12/24 11:27:50;;;;;;;26.58;4.35;;;9.20;99.90;;;;;;5091977;28;20126;-47
2022/12/24 11:30:15;;;;;;;34.92;5.10;;;9.20;99.90;;;;;;5092588;28;20047;-44
2022/12/24 11:32:43;;;;;;;36.08;5.53;;;9.30;99.90;;;;;;5092209;28;20043;-45
2022/12/24 11:35:15;;;;;;;38.70;6.30;;;9.10;99.90;;;;;;5091564;28;20048;-46
2022/12/24 11:37:40;;;;;;;29.92;5.32;;;9.20;99.90;;;;;;5091917;28;20039;-45
2022/12/24 11:40:20;;;;;;;29.58;5.55;;;9.20;99.90;;;;;;5092043;28;20043;-45
2022/12/24 11:42:46;;;;;;;33.78;4.63;;;9.20;99.90;;;;;;5090855;28;20504;-49
2022/12/24 11:45:28;;;;;;;40.33;4.57;;;9.30;99.90;;;;;;5090866;28;20046;-46
2022/12/24 11:47:55;;;;;;;37.20;5.30;;;9.10;99.90;;;;;;5091203;28;21585;-45
2022/12/24 11:50:22;;;;;;;39.03;5.80;;;9.10;99.90;;;;;;5092860;28;20070;-49
2022/12/24 11:52:56;;;;;;;33.28;5.95;;;9.30;99.90;;;;;;5092806;28;20831;-46
2022/12/24 11:55:43;;;;;;;33.90;5.95;;;9.10;99.90;;;;;;5109567;27;20433;-44
2022/12/24 11:58:27;;;;;;;34.05;4.55;;;9.10;99.90;;;;;;5092528;28;20073;-47
2022/12/24 12:01:08;;;;;;;30.88;4.35;;;9.20;99.90;;;;;;5092370;28;20416;-44
2022/12/24 12:04:02;;;;;;;25.25;5.15;;;9.10;99.90;;;;;;5094424;28;20071;-44
2022/12/24 12:06:36;;;;;;;33.40;4.38;;;9.00;99.90;;;;;;5091318;27;20570;-45
2022/12/24 12:09:09;;;;;;;25.83;4.93;;;9.00;99.90;;;;;;5093500;28;20104;-46
2022/12/24 12:11:39;;;;;;;30.75;4.03;;;9.20;99.90;;;;;;5092815;28;20055;-44
2022/12/24 12:14:08;;;;;;;24.33;5.38;;;8.90;99.90;;;;;;5092947;28;20048;-44
2022/12/24 12:16:59;;;;;;;28.88;5.88;;;9.00;99.90;;;;;;5092875;28;20040;-45
2022/12/24 12:19:29;;;;;;;30.33;5.97;;;10.20;99.90;;;;;;5092264;27;20071;-44
2022/12/24 12:21:57;;;;;;;28.60;4.65;;;9.20;99.90;;;;;;5094323;27;20104;-43
2022/12/24 12:24:33;;;;;;;30.90;5.72;;;9.10;99.90;;;;;;5095333;28;20074;-46
2022/12/24 12:27:24;;;;;;;26.00;5.13;;;8.50;99.90;;;;;;5094202;27;20075;-47
2022/12/24 12:29:57;;;;;;;28.80;4.70;;;9.10;99.90;;;;;;5095798;27;20054;-44
2022/12/24 12:32:36;;;;;;;27.92;4.22;;;9.10;99.90;;;;;;5095130;27;20289;-45
2022/12/24 12:35:14;;;;;;;28.33;5.35;;;9.20;99.90;;;;;;5094086;28;20138;-46
2022/12/24 12:37:44;;;;;;;27.65;4.35;;;9.00;99.90;;;;;;5095218;27;20126;-46
2022/12/24 12:40:15;;;;;;;34.50;4.50;;;8.90;99.90;;;;;;5096499;27;20225;-48
2022/12/24 12:42:50;;;;;;;26.73;4.07;;;9.20;99.90;;;;;;5095033;27;20435;-45
2022/12/24 12:45:54;;;;;;;30.00;3.92;;;9.20;99.90;;;;;;5095408;27;20035;-45
2022/12/24 12:48:52;;;;;;;25.05;5.13;;;9.20;99.90;;;;;;5041636;27;20526;-44
2022/12/24 12:51:43;;;;;;;32.67;4.95;;;9.30;99.90;;;;;;5095541;27;20039;-44
2022/12/24 12:54:30;;;;;;;30.20;5.03;;;9.20;99.90;;;;;;5094478;27;20620;-46
2022/12/24 12:57:00;;;;;;;36.22;5.60;;;9.30;99.90;;;;;;5093713;28;20066;-46
2022/12/24 13:00:07;;;;;;;28.02;4.35;;;9.20;99.90;;;;;;5093598;27;20104;-45
2022/12/24 13:02:47;;;;;;;30.00;3.70;;;9.10;99.90;;;;;;5093900;28;20055;-45
2022/12/24 13:05:37;;;;;;;25.73;3.83;;;9.20;99.90;;;;;;5094251;27;20136;-44
2022/12/24 13:08:23;;;;;;;28.63;3.97;;;9.10;99.90;;;;;;5095276;27;20158;-44
2022/12/24 13:10:57;;;;;;;27.90;4.50;;;9.20;99.90;;;;;;5092345;27;20047;-45